sensor_id;sensor_type;location;lat;lon;timestamp;pressure;altitude;pressure_sealevel;temperature;humidity
77192;BME280;66172;48.526;8.078;2023-01-15T00:01:49;98492.34;;;12.42;65.33
77192;BME280;66172;48.526;8.078;2023-01-15T00:04:15;98476.78;;;12.42;65.37
77192;BME280;66172;48.526;8.078;2023-01-15T00:06:42;98473.59;;;12.33;65.66
77192;BME280;66172;48.526;8.078;2023-01-15T00:09:12;98475.25;;;12.41;65.21
77192;BME280;66172;48.526;8.078;2023-01-15T00:11:39;98463.94;;;12.43;65.04
77192;BME280;66172;48.526;8.078;2023-01-15T00:14:05;98447.47;;;12.32;65.63
77192;BME280;66172;48.526;8.078;2023-01-15T00:16:30;98459.19;;;12.36;65.48
77192;BME280;66172;48.526;8.078;2023-01-15T00:18:59;98453.31;;;12.31;66.12
77192;BME280;66172;48.526;8.078;2023-01-15T00:21:26;98448.28;;;12.36;66.04
77192;BME280;66172;48.526;8.078;2023-01-15T00:23:53;98444.50;;;12.44;65.08
77192;BME280;66172;48.526;8.078;2023-01-15T00:26:38;98439.00;;;12.41;65.27
77192;BME280;66172;48.526;8.078;2023-01-15T00:29:23;98440.53;;;12.38;65.48
77192;BME280;66172;48.526;8.078;2023-01-15T00:31:55;98455.41;;;12.44;65.74
77192;BME280;66172;48.526;8.078;2023-01-15T00:34:22;98448.34;;;12.40;66.31
77192;BME280;66172;48.526;8.078;2023-01-15T00:36:48;98436.63;;;12.39;66.44
77192;BME280;66172;48.526;8.078;2023-01-15T00:39:14;98438.09;;;12.30;67.14
77192;BME280;66172;48.526;8.078;2023-01-15T00:41:40;98442.06;;;12.36;67.25
77192;BME280;66172;48.526;8.078;2023-01-15T00:44:05;98434.66;;;12.36;67.03
77192;BME280;66172;48.526;8.078;2023-01-15T00:46:31;98444.66;;;12.25;67.79
77192;BME280;66172;48.526;8.078;2023-01-15T00:48:57;98425.19;;;12.23;68.31
77192;BME280;66172;48.526;8.078;2023-01-15T00:51:23;98419.28;;;12.18;68.10
77192;BME280;66172;48.526;8.078;2023-01-15T00:53:49;98412.28;;;12.17;68.37
77192;BME280;66172;48.526;8.078;2023-01-15T00:56:15;98422.88;;;12.25;67.57
77192;BME280;66172;48.526;8.078;2023-01-15T00:58:41;98419.38;;;12.28;67.67
77192;BME280;66172;48.526;8.078;2023-01-15T01:01:07;98417.56;;;12.39;67.40
77192;BME280;66172;48.526;8.078;2023-01-15T01:03:33;98417.81;;;12.24;68.64
77192;BME280;66172;48.526;8.078;2023-01-15T01:06:02;98399.06;;;12.19;68.76
77192;BME280;66172;48.526;8.078;2023-01-15T01:08:29;98403.75;;;12.22;68.09
77192;BME280;66172;48.526;8.078;2023-01-15T01:11:06;98400.66;;;12.23;68.27
77192;BME280;66172;48.526;8.078;2023-01-15T01:13:33;98414.69;;;12.25;68.06
77192;BME280;66172;48.526;8.078;2023-01-15T01:15:59;98400.66;;;12.23;68.45
77192;BME280;66172;48.526;8.078;2023-01-15T01:18:25;98425.94;;;12.20;68.68
77192;BME280;66172;48.526;8.078;2023-01-15T01:20:51;98410.03;;;12.26;68.26
77192;BME280;66172;48.526;8.078;2023-01-15T01:23:18;98401.53;;;12.31;67.92
77192;BME280;66172;48.526;8.078;2023-01-15T01:25:44;98399.56;;;12.28;68.24
77192;BME280;66172;48.526;8.078;2023-01-15T01:28:10;98399.59;;;12.31;67.68
77192;BME280;66172;48.526;8.078;2023-01-15T01:30:37;98400.78;;;12.34;67.58
77192;BME280;66172;48.526;8.078;2023-01-15T01:33:03;98391.91;;;12.44;67.52
77192;BME280;66172;48.526;8.078;2023-01-15T01:35:29;98402.00;;;12.43;67.83
77192;BME280;66172;48.526;8.078;2023-01-15T01:37:55;98390.72;;;12.41;67.48
77192;BME280;66172;48.526;8.078;2023-01-15T01:40:21;98384.13;;;12.46;67.84
77192;BME280;66172;48.526;8.078;2023-01-15T01:42:47;98401.63;;;12.41;68.43
77192;BME280;66172;48.526;8.078;2023-01-15T01:47:44;98354.56;;;12.51;67.68
77192;BME280;66172;48.526;8.078;2023-01-15T01:50:12;98367.81;;;12.53;68.01
77192;BME280;66172;48.526;8.078;2023-01-15T01:52:42;98360.03;;;12.51;68.08
77192;BME280;66172;48.526;8.078;2023-01-15T01:55:11;98362.84;;;12.62;67.69
77192;BME280;66172;48.526;8.078;2023-01-15T01:57:39;98358.63;;;12.75;66.92
77192;BME280;66172;48.526;8.078;2023-01-15T02:00:06;98354.22;;;12.57;68.01
77192;BME280;66172;48.526;8.078;2023-01-15T02:02:32;98344.84;;;12.54;68.38
77192;BME280;66172;48.526;8.078;2023-01-15T02:05:00;98343.66;;;12.51;68.43
77192;BME280;66172;48.526;8.078;2023-01-15T02:07:27;98334.31;;;12.52;68.37
77192;BME280;66172;48.526;8.078;2023-01-15T02:09:53;98338.16;;;12.44;69.05
77192;BME280;66172;48.526;8.078;2023-01-15T02:12:24;98330.81;;;12.52;68.44
77192;BME280;66172;48.526;8.078;2023-01-15T02:15:06;98330.41;;;12.50;69.14
77192;BME280;66172;48.526;8.078;2023-01-15T02:17:44;98335.50;;;12.55;68.97
77192;BME280;66172;48.526;8.078;2023-01-15T02:20:21;98303.56;;;12.56;68.63
77192;BME280;66172;48.526;8.078;2023-01-15T02:28:28;98314.53;;;12.63;68.68
77192;BME280;66172;48.526;8.078;2023-01-15T02:31:01;98307.47;;;12.55;69.22
77192;BME280;66172;48.526;8.078;2023-01-15T02:33:34;98298.88;;;12.56;69.52
77192;BME280;66172;48.526;8.078;2023-01-15T02:36:01;98310.53;;;12.49;69.71
77192;BME280;66172;48.526;8.078;2023-01-15T02:38:35;98306.28;;;12.52;69.98
77192;BME280;66172;48.526;8.078;2023-01-15T02:41:04;98298.34;;;12.36;70.81
77192;BME280;66172;48.526;8.078;2023-01-15T02:43:34;98295.75;;;12.54;69.35
77192;BME280;66172;48.526;8.078;2023-01-15T02:46:03;98293.31;;;12.38;71.20
77192;BME280;66172;48.526;8.078;2023-01-15T02:48:31;98302.97;;;12.29;71.34
77192;BME280;66172;48.526;8.078;2023-01-15T02:51:08;98281.13;;;12.25;71.47
77192;BME280;66172;48.526;8.078;2023-01-15T02:53:37;98283.59;;;12.41;70.64
77192;BME280;66172;48.526;8.078;2023-01-15T02:56:16;98287.88;;;12.42;70.26
77192;BME280;66172;48.526;8.078;2023-01-15T02:58:44;98286.78;;;12.50;69.81
77192;BME280;66172;48.526;8.078;2023-01-15T03:01:16;98313.16;;;12.39;70.24
77192;BME280;66172;48.526;8.078;2023-01-15T03:03:54;98302.66;;;12.37;70.26
77192;BME280;66172;48.526;8.078;2023-01-15T03:06:40;98298.38;;;12.40;70.56
77192;BME280;66172;48.526;8.078;2023-01-15T03:09:06;98285.47;;;12.30;71.10
77192;BME280;66172;48.526;8.078;2023-01-15T03:11:40;98285.41;;;12.23;71.36
77192;BME280;66172;48.526;8.078;2023-01-15T03:14:23;98277.53;;;12.14;73.18
77192;BME280;66172;48.526;8.078;2023-01-15T03:16:56;98290.75;;;12.12;72.68
77192;BME280;66172;48.526;8.078;2023-01-15T03:19:47;98282.59;;;12.12;72.26
77192;BME280;66172;48.526;8.078;2023-01-15T03:22:27;98294.34;;;12.20;71.60
77192;BME280;66172;48.526;8.078;2023-01-15T03:25:03;98286.09;;;12.13;72.13
77192;BME280;66172;48.526;8.078;2023-01-15T03:27:31;98282.31;;;12.24;71.33
77192;BME280;66172;48.526;8.078;2023-01-15T03:30:04;98282.25;;;12.17;72.39
77192;BME280;66172;48.526;8.078;2023-01-15T03:32:31;98283.72;;;12.08;72.12
77192;BME280;66172;48.526;8.078;2023-01-15T03:34:57;98276.75;;;12.10;72.09
77192;BME280;66172;48.526;8.078;2023-01-15T03:37:25;98297.34;;;12.08;72.21
77192;BME280;66172;48.526;8.078;2023-01-15T03:39:54;98288.91;;;12.23;71.94
77192;BME280;66172;48.526;8.078;2023-01-15T03:45:19;98289.31;;;12.25;71.62
77192;BME280;66172;48.526;8.078;2023-01-15T03:47:56;98270.97;;;12.19;72.09
77192;BME280;66172;48.526;8.078;2023-01-15T03:50:26;98287.81;;;12.31;71.13
77192;BME280;66172;48.526;8.078;2023-01-15T03:55:44;98276.03;;;12.20;72.22
77192;BME280;66172;48.526;8.078;2023-01-15T03:58:25;98262.03;;;12.22;71.58
77192;BME280;66172;48.526;8.078;2023-01-15T04:00:57;98264.34;;;12.16;71.97
77192;BME280;66172;48.526;8.078;2023-01-15T04:03:25;98276.03;;;12.20;71.79
77192;BME280;66172;48.526;8.078;2023-01-15T04:05:55;98285.78;;;12.25;71.91
77192;BME280;66172;48.526;8.078;2023-01-15T04:08:22;98279.50;;;12.14;72.67
77192;BME280;66172;48.526;8.078;2023-01-15T04:10:57;98276.03;;;12.17;72.99
77192;BME280;66172;48.526;8.078;2023-01-15T04:13:24;98268.84;;;11.98;74.69
77192;BME280;66172;48.526;8.078;2023-01-15T04:15:50;98275.44;;;11.97;74.55
77192;BME280;66172;48.526;8.078;2023-01-15T04:18:16;98260.69;;;12.01;73.94
77192;BME280;66172;48.526;8.078;2023-01-15T04:20:43;98273.25;;;12.10;74.39
77192;BME280;66172;48.526;8.078;2023-01-15T04:23:09;98260.56;;;11.84;75.95
77192;BME280;66172;48.526;8.078;2023-01-15T04:25:34;98270.19;;;11.74;76.44
77192;BME280;66172;48.526;8.078;2023-01-15T04:28:00;98278.66;;;11.69;77.09
77192;BME280;66172;48.526;8.078;2023-01-15T04:30:26;98276.69;;;11.66;76.46
77192;BME280;66172;48.526;8.078;2023-01-15T04:32:52;98273.09;;;11.59;78.33
77192;BME280;66172;48.526;8.078;2023-01-15T04:35:18;98288.63;;;11.54;78.31
77192;BME280;66172;48.526;8.078;2023-01-15T04:37:45;98325.34;;;11.34;78.24
77192;BME280;66172;48.526;8.078;2023-01-15T04:40:11;98343.50;;;10.44;77.95
77192;BME280;66172;48.526;8.078;2023-01-15T04:42:57;98364.19;;;9.65;81.63
77192;BME280;66172;48.526;8.078;2023-01-15T04:45:42;98366.72;;;9.00;83.72
77192;BME280;66172;48.526;8.078;2023-01-15T04:48:08;98380.22;;;8.97;83.73
77192;BME280;66172;48.526;8.078;2023-01-15T04:50:34;98383.06;;;9.04;83.48
77192;BME280;66172;48.526;8.078;2023-01-15T04:53:00;98381.19;;;8.73;83.52
77192;BME280;66172;48.526;8.078;2023-01-15T04:57:59;98383.41;;;8.68;83.71
77192;BME280;66172;48.526;8.078;2023-01-15T05:00:25;98406.03;;;8.60;84.63
77192;BME280;66172;48.526;8.078;2023-01-15T05:02:51;98412.69;;;8.46;84.38
77192;BME280;66172;48.526;8.078;2023-01-15T05:05:17;98401.06;;;8.46;84.94
77192;BME280;66172;48.526;8.078;2023-01-15T05:07:43;98412.44;;;8.36;84.82
77192;BME280;66172;48.526;8.078;2023-01-15T05:10:09;98411.78;;;8.27;85.41
77192;BME280;66172;48.526;8.078;2023-01-15T05:12:35;98423.06;;;8.29;84.89
77192;BME280;66172;48.526;8.078;2023-01-15T05:15:01;98426.59;;;8.17;84.55
77192;BME280;66172;48.526;8.078;2023-01-15T05:17:27;98423.97;;;8.05;85.15
77192;BME280;66172;48.526;8.078;2023-01-15T05:19:52;98423.47;;;8.15;85.92
77192;BME280;66172;48.526;8.078;2023-01-15T05:22:18;98411.16;;;8.18;85.27
77192;BME280;66172;48.526;8.078;2023-01-15T05:24:44;98412.13;;;8.25;84.96
77192;BME280;66172;48.526;8.078;2023-01-15T05:27:10;98421.28;;;8.21;84.98
77192;BME280;66172;48.526;8.078;2023-01-15T05:29:36;98399.72;;;8.24;84.48
77192;BME280;66172;48.526;8.078;2023-01-15T05:32:02;98405.50;;;8.23;84.77
77192;BME280;66172;48.526;8.078;2023-01-15T05:34:28;98389.34;;;8.26;84.49
77192;BME280;66172;48.526;8.078;2023-01-15T05:36:54;98434.56;;;8.26;83.85
77192;BME280;66172;48.526;8.078;2023-01-15T05:39:20;98404.75;;;8.10;84.29
77192;BME280;66172;48.526;8.078;2023-01-15T05:41:45;98409.03;;;8.11;85.41
77192;BME280;66172;48.526;8.078;2023-01-15T05:44:20;98402.31;;;8.21;84.94
77192;BME280;66172;48.526;8.078;2023-01-15T05:46:47;98408.03;;;8.31;84.82
77192;BME280;66172;48.526;8.078;2023-01-15T05:49:16;98410.84;;;8.35;84.64
77192;BME280;66172;48.526;8.078;2023-01-15T05:51:43;98403.09;;;8.33;84.41
77192;BME280;66172;48.526;8.078;2023-01-15T05:54:15;98417.75;;;8.32;84.30
77192;BME280;66172;48.526;8.078;2023-01-15T05:56:41;98411.97;;;8.34;84.00
77192;BME280;66172;48.526;8.078;2023-01-15T05:59:07;98436.50;;;8.25;83.67
77192;BME280;66172;48.526;8.078;2023-01-15T06:01:34;98438.13;;;8.14;83.96
77192;BME280;66172;48.526;8.078;2023-01-15T06:04:01;98452.22;;;8.20;84.16
77192;BME280;66172;48.526;8.078;2023-01-15T06:06:28;98433.84;;;8.13;84.03
77192;BME280;66172;48.526;8.078;2023-01-15T06:08:55;98452.13;;;8.16;84.30
77192;BME280;66172;48.526;8.078;2023-01-15T06:11:21;98459.09;;;8.17;84.49
77192;BME280;66172;48.526;8.078;2023-01-15T06:13:47;98475.34;;;8.17;84.40
77192;BME280;66172;48.526;8.078;2023-01-15T06:16:13;98474.91;;;8.15;84.74
77192;BME280;66172;48.526;8.078;2023-01-15T06:18:39;98463.81;;;8.20;85.11
77192;BME280;66172;48.526;8.078;2023-01-15T06:21:09;98491.41;;;8.10;84.03
77192;BME280;66172;48.526;8.078;2023-01-15T06:23:35;98473.84;;;8.04;83.40
77192;BME280;66172;48.526;8.078;2023-01-15T06:26:03;98478.94;;;7.93;83.81
77192;BME280;66172;48.526;8.078;2023-01-15T06:28:30;98467.59;;;7.88;83.88
77192;BME280;66172;48.526;8.078;2023-01-15T06:30:56;98494.50;;;7.96;84.94
77192;BME280;66172;48.526;8.078;2023-01-15T06:33:22;98511.00;;;7.91;85.00
77192;BME280;66172;48.526;8.078;2023-01-15T06:35:48;98516.75;;;7.78;84.66
77192;BME280;66172;48.526;8.078;2023-01-15T06:38:14;98523.56;;;7.72;85.56
77192;BME280;66172;48.526;8.078;2023-01-15T06:40:40;98516.22;;;7.72;85.10
77192;BME280;66172;48.526;8.078;2023-01-15T06:43:09;98529.75;;;7.72;85.51
77192;BME280;66172;48.526;8.078;2023-01-15T06:45:53;98531.72;;;7.60;85.64
77192;BME280;66172;48.526;8.078;2023-01-15T06:48:38;98541.84;;;7.50;85.88
77192;BME280;66172;48.526;8.078;2023-01-15T06:51:04;98541.53;;;7.52;85.93
77192;BME280;66172;48.526;8.078;2023-01-15T06:53:30;98542.66;;;7.51;86.33
77192;BME280;66172;48.526;8.078;2023-01-15T06:55:56;98555.50;;;7.42;86.21
77192;BME280;66172;48.526;8.078;2023-01-15T06:58:21;98576.13;;;7.46;86.20
77192;BME280;66172;48.526;8.078;2023-01-15T07:00:47;98578.59;;;7.39;86.21
77192;BME280;66172;48.526;8.078;2023-01-15T07:03:19;98586.25;;;7.49;86.47
77192;BME280;66172;48.526;8.078;2023-01-15T07:05:45;98583.53;;;7.49;85.65
77192;BME280;66172;48.526;8.078;2023-01-15T07:08:11;98592.81;;;7.48;85.87
77192;BME280;66172;48.526;8.078;2023-01-15T07:10:37;98608.00;;;7.53;85.78
77192;BME280;66172;48.526;8.078;2023-01-15T07:13:03;98597.53;;;7.51;85.62
77192;BME280;66172;48.526;8.078;2023-01-15T07:15:29;98601.94;;;7.44;85.76
77192;BME280;66172;48.526;8.078;2023-01-15T07:17:56;98603.72;;;7.40;86.00
77192;BME280;66172;48.526;8.078;2023-01-15T07:20:22;98605.19;;;7.37;85.78
77192;BME280;66172;48.526;8.078;2023-01-15T07:22:49;98626.28;;;7.44;85.92
77192;BME280;66172;48.526;8.078;2023-01-15T07:25:15;98629.78;;;7.44;85.31
77192;BME280;66172;48.526;8.078;2023-01-15T07:27:42;98628.84;;;7.40;85.26
77192;BME280;66172;48.526;8.078;2023-01-15T07:30:08;98633.72;;;7.35;85.08
77192;BME280;66172;48.526;8.078;2023-01-15T07:32:34;98653.41;;;7.35;85.11
77192;BME280;66172;48.526;8.078;2023-01-15T07:35:00;98640.22;;;7.22;84.46
77192;BME280;66172;48.526;8.078;2023-01-15T07:37:26;98665.56;;;7.17;84.32
77192;BME280;66172;48.526;8.078;2023-01-15T07:39:51;98667.72;;;7.24;84.08
77192;BME280;66172;48.526;8.078;2023-01-15T07:42:17;98658.66;;;7.08;83.46
77192;BME280;66172;48.526;8.078;2023-01-15T07:45:02;98670.25;;;6.96;83.13
77192;BME280;66172;48.526;8.078;2023-01-15T07:47:46;98680.31;;;6.87;83.29
77192;BME280;66172;48.526;8.078;2023-01-15T07:50:30;98679.63;;;6.78;82.65
77192;BME280;66172;48.526;8.078;2023-01-15T07:52:56;98668.72;;;6.86;82.46
77192;BME280;66172;48.526;8.078;2023-01-15T07:55:22;98666.19;;;6.69;81.79
77192;BME280;66172;48.526;8.078;2023-01-15T07:57:48;98675.31;;;6.65;82.08
77192;BME280;66172;48.526;8.078;2023-01-15T08:00:19;98675.09;;;6.70;82.73
77192;BME280;66172;48.526;8.078;2023-01-15T08:02:45;98687.34;;;6.67;81.96
77192;BME280;66172;48.526;8.078;2023-01-15T08:05:14;98695.59;;;6.71;82.85
77192;BME280;66172;48.526;8.078;2023-01-15T08:07:41;98708.28;;;6.70;82.00
77192;BME280;66172;48.526;8.078;2023-01-15T08:10:08;98705.28;;;6.72;81.77
77192;BME280;66172;48.526;8.078;2023-01-15T08:12:35;98726.22;;;6.75;82.44
77192;BME280;66172;48.526;8.078;2023-01-15T08:15:19;98723.78;;;6.82;83.35
77192;BME280;66172;48.526;8.078;2023-01-15T08:17:50;98711.88;;;6.95;83.41
77192;BME280;66172;48.526;8.078;2023-01-15T08:20:22;98708.41;;;6.94;81.95
77192;BME280;66172;48.526;8.078;2023-01-15T08:22:48;98712.59;;;7.04;82.03
77192;BME280;66172;48.526;8.078;2023-01-15T08:25:17;98720.69;;;7.04;82.31
77192;BME280;66172;48.526;8.078;2023-01-15T08:27:43;98708.31;;;7.03;81.95
77192;BME280;66172;48.526;8.078;2023-01-15T08:30:18;98715.41;;;7.08;82.05
77192;BME280;66172;48.526;8.078;2023-01-15T08:32:44;98719.16;;;7.15;80.21
77192;BME280;66172;48.526;8.078;2023-01-15T08:35:10;98720.06;;;7.19;80.94
77192;BME280;66172;48.526;8.078;2023-01-15T08:37:39;98733.94;;;7.18;82.16
77192;BME280;66172;48.526;8.078;2023-01-15T08:40:05;98733.03;;;7.14;81.62
77192;BME280;66172;48.526;8.078;2023-01-15T08:42:32;98733.47;;;7.16;81.42
77192;BME280;66172;48.526;8.078;2023-01-15T08:44:58;98739.56;;;7.13;81.74
77192;BME280;66172;48.526;8.078;2023-01-15T08:47:24;98738.88;;;7.16;82.31
77192;BME280;66172;48.526;8.078;2023-01-15T08:49:50;98732.09;;;7.10;83.41
77192;BME280;66172;48.526;8.078;2023-01-15T08:52:16;98745.13;;;6.95;83.16
77192;BME280;66172;48.526;8.078;2023-01-15T08:54:42;98755.81;;;6.92;83.48
77192;BME280;66172;48.526;8.078;2023-01-15T08:57:08;98776.28;;;6.72;84.03
77192;BME280;66172;48.526;8.078;2023-01-15T08:59:36;98785.44;;;6.80;84.06
77192;BME280;66172;48.526;8.078;2023-01-15T09:02:02;98788.41;;;6.87;83.26
77192;BME280;66172;48.526;8.078;2023-01-15T09:04:29;98792.81;;;6.50;84.78
77192;BME280;66172;48.526;8.078;2023-01-15T09:06:55;98779.75;;;6.52;85.47
77192;BME280;66172;48.526;8.078;2023-01-15T09:09:20;98783.41;;;6.56;85.97
77192;BME280;66172;48.526;8.078;2023-01-15T09:11:46;98786.97;;;6.69;86.12
77192;BME280;66172;48.526;8.078;2023-01-15T09:14:13;98782.94;;;6.54;85.00
77192;BME280;66172;48.526;8.078;2023-01-15T09:16:40;98800.13;;;6.49;85.91
77192;BME280;66172;48.526;8.078;2023-01-15T09:19:06;98797.69;;;6.57;86.14
77192;BME280;66172;48.526;8.078;2023-01-15T09:21:33;98827.25;;;6.82;84.68
77192;BME280;66172;48.526;8.078;2023-01-15T09:23:59;98809.63;;;6.76;80.63
77192;BME280;66172;48.526;8.078;2023-01-15T09:26:28;98821.09;;;6.94;77.95
77192;BME280;66172;48.526;8.078;2023-01-15T09:28:54;98836.66;;;6.76;79.56
77192;BME280;66172;48.526;8.078;2023-01-15T09:31:21;98828.63;;;6.68;79.41
77192;BME280;66172;48.526;8.078;2023-01-15T09:33:47;98852.53;;;6.78;78.67
77192;BME280;66172;48.526;8.078;2023-01-15T09:36:15;98863.00;;;6.79;77.56
77192;BME280;66172;48.526;8.078;2023-01-15T09:38:41;98867.13;;;6.85;77.46
77192;BME280;66172;48.526;8.078;2023-01-15T09:41:11;98869.31;;;6.63;78.48
77192;BME280;66172;48.526;8.078;2023-01-15T09:44:15;98865.13;;;6.44;79.10
77192;BME280;66172;48.526;8.078;2023-01-15T09:46:59;98870.66;;;6.48;79.58
77192;BME280;66172;48.526;8.078;2023-01-15T09:49:36;98862.25;;;6.49;79.41
77192;BME280;66172;48.526;8.078;2023-01-15T09:52:36;98878.91;;;6.51;79.84
77192;BME280;66172;48.526;8.078;2023-01-15T09:55:12;98882.53;;;6.56;80.06
77192;BME280;66172;48.526;8.078;2023-01-15T09:57:40;98900.47;;;6.60;78.87
77192;BME280;66172;48.526;8.078;2023-01-15T10:00:12;98906.31;;;6.71;78.74
77192;BME280;66172;48.526;8.078;2023-01-15T10:02:47;98908.59;;;6.51;77.90
77192;BME280;66172;48.526;8.078;2023-01-15T10:05:26;98924.97;;;6.55;79.75
77192;BME280;66172;48.526;8.078;2023-01-15T10:08:08;98925.47;;;6.48;78.76
77192;BME280;66172;48.526;8.078;2023-01-15T10:10:43;98916.03;;;6.63;78.89
77192;BME280;66172;48.526;8.078;2023-01-15T10:13:22;98911.78;;;6.53;78.55
77192;BME280;66172;48.526;8.078;2023-01-15T10:15:52;98921.31;;;6.51;78.55
77192;BME280;66172;48.526;8.078;2023-01-15T10:18:20;98919.13;;;6.44;78.71
77192;BME280;66172;48.526;8.078;2023-01-15T10:24:23;98944.19;;;6.53;78.41
77192;BME280;66172;48.526;8.078;2023-01-15T10:26:54;98919.63;;;6.38;77.73
77192;BME280;66172;48.526;8.078;2023-01-15T10:35:09;98958.84;;;6.44;77.50
77192;BME280;66172;48.526;8.078;2023-01-15T10:38:00;98964.72;;;6.37;78.13
77192;BME280;66172;48.526;8.078;2023-01-15T10:45:57;98962.69;;;6.34;78.34
77192;BME280;66172;48.526;8.078;2023-01-15T10:51:02;99002.09;;;6.27;80.07
77192;BME280;66172;48.526;8.078;2023-01-15T10:53:45;99022.13;;;6.17;80.25
77192;BME280;66172;48.526;8.078;2023-01-15T10:59:05;99061.53;;;5.36;78.86
77192;BME280;66172;48.526;8.078;2023-01-15T11:01:36;99048.41;;;5.03;79.36
77192;BME280;66172;48.526;8.078;2023-01-15T11:04:02;99049.31;;;4.82;81.04
77192;BME280;66172;48.526;8.078;2023-01-15T11:06:29;99062.63;;;4.56;80.71
77192;BME280;66172;48.526;8.078;2023-01-15T11:08:56;99055.44;;;4.43;82.00
77192;BME280;66172;48.526;8.078;2023-01-15T11:11:51;99051.31;;;4.45;81.77
77192;BME280;66172;48.526;8.078;2023-01-15T11:14:41;99044.56;;;4.57;81.84
77192;BME280;66172;48.526;8.078;2023-01-15T11:17:30;99039.56;;;4.72;81.28
77192;BME280;66172;48.526;8.078;2023-01-15T11:20:28;99042.69;;;4.96;81.57
77192;BME280;66172;48.526;8.078;2023-01-15T11:22:56;99039.41;;;4.99;81.26
77192;BME280;66172;48.526;8.078;2023-01-15T11:25:30;99040.72;;;5.19;79.53
77192;BME280;66172;48.526;8.078;2023-01-15T11:28:05;99044.69;;;5.22;80.02
77192;BME280;66172;48.526;8.078;2023-01-15T11:30:33;99039.78;;;5.32;79.85
77192;BME280;66172;48.526;8.078;2023-01-15T11:33:03;99046.28;;;5.31;80.07
77192;BME280;66172;48.526;8.078;2023-01-15T11:35:30;99053.59;;;5.39;80.04
77192;BME280;66172;48.526;8.078;2023-01-15T11:38:11;99042.31;;;5.29;79.97
77192;BME280;66172;48.526;8.078;2023-01-15T11:40:37;99041.94;;;5.04;80.44
77192;BME280;66172;48.526;8.078;2023-01-15T11:43:18;99029.88;;;5.02;81.05
77192;BME280;66172;48.526;8.078;2023-01-15T11:46:03;99026.19;;;5.37;79.94
77192;BME280;66172;48.526;8.078;2023-01-15T11:48:47;99033.44;;;5.28;79.66
77192;BME280;66172;48.526;8.078;2023-01-15T11:51:38;99031.88;;;5.27;80.01
77192;BME280;66172;48.526;8.078;2023-01-15T11:54:11;99043.00;;;5.43;80.14
77192;BME280;66172;48.526;8.078;2023-01-15T11:56:41;99042.03;;;5.39;78.87
77192;BME280;66172;48.526;8.078;2023-01-15T11:59:15;99045.69;;;5.34;78.35
77192;BME280;66172;48.526;8.078;2023-01-15T12:01:54;99051.56;;;5.53;80.39
77192;BME280;66172;48.526;8.078;2023-01-15T12:04:37;99057.78;;;5.54;77.64
77192;BME280;66172;48.526;8.078;2023-01-15T12:07:05;99057.78;;;5.63;77.16
77192;BME280;66172;48.526;8.078;2023-01-15T12:12:29;99055.16;;;6.14;76.07
77192;BME280;66172;48.526;8.078;2023-01-15T12:23:19;99046.22;;;5.62;75.31
77192;BME280;66172;48.526;8.078;2023-01-15T12:26:00;99053.03;;;5.85;74.11
77192;BME280;66172;48.526;8.078;2023-01-15T12:28:32;99032.09;;;5.65;74.35
77192;BME280;66172;48.526;8.078;2023-01-15T12:31:04;99037.19;;;5.84;73.15
77192;BME280;66172;48.526;8.078;2023-01-15T12:33:58;99039.72;;;5.80;74.04
77192;BME280;66172;48.526;8.078;2023-01-15T12:39:00;99033.72;;;5.92;71.23
77192;BME280;66172;48.526;8.078;2023-01-15T12:41:34;99034.78;;;5.82;74.05
77192;BME280;66172;48.526;8.078;2023-01-15T12:44:40;99022.59;;;6.02;71.64
77192;BME280;66172;48.526;8.078;2023-01-15T12:47:31;99028.63;;;6.25;72.46
77192;BME280;66172;48.526;8.078;2023-01-15T12:50:05;99024.31;;;6.32;72.15
77192;BME280;66172;48.526;8.078;2023-01-15T12:52:38;99029.56;;;6.84;70.11
77192;BME280;66172;48.526;8.078;2023-01-15T12:55:25;99025.81;;;7.14;68.87
77192;BME280;66172;48.526;8.078;2023-01-15T12:57:55;99024.59;;;7.53;66.77
77192;BME280;66172;48.526;8.078;2023-01-15T13:00:38;99027.59;;;8.01;65.67
77192;BME280;66172;48.526;8.078;2023-01-15T13:05:47;99030.59;;;8.41;62.56
77192;BME280;66172;48.526;8.078;2023-01-15T13:08:19;99037.03;;;8.37;63.11
77192;BME280;66172;48.526;8.078;2023-01-15T13:10:49;99019.34;;;7.98;63.92
77192;BME280;66172;48.526;8.078;2023-01-15T13:13:21;99028.66;;;8.30;64.35
77192;BME280;66172;48.526;8.078;2023-01-15T13:16:20;99038.28;;;8.51;63.42
77192;BME280;66172;48.526;8.078;2023-01-15T13:21:17;99024.63;;;7.94;62.28
77192;BME280;66172;48.526;8.078;2023-01-15T13:24:03;99031.44;;;7.80;62.29
77192;BME280;66172;48.526;8.078;2023-01-15T13:29:54;99020.41;;;7.14;64.48
77192;BME280;66172;48.526;8.078;2023-01-15T13:32:33;99018.81;;;7.04;65.82
77192;BME280;66172;48.526;8.078;2023-01-15T13:35:10;99028.00;;;7.21;65.07
77192;BME280;66172;48.526;8.078;2023-01-15T13:37:44;99027.66;;;7.51;65.62
77192;BME280;66172;48.526;8.078;2023-01-15T13:40:25;99025.59;;;7.19;65.24
77192;BME280;66172;48.526;8.078;2023-01-15T13:42:52;99018.41;;;6.94;65.91
77192;BME280;66172;48.526;8.078;2023-01-15T13:45:22;99021.03;;;7.11;67.06
77192;BME280;66172;48.526;8.078;2023-01-15T13:47:56;99032.50;;;7.08;66.54
77192;BME280;66172;48.526;8.078;2023-01-15T13:50:29;99042.16;;;7.18;66.29
77192;BME280;66172;48.526;8.078;2023-01-15T13:53:02;99031.66;;;6.78;66.62
77192;BME280;66172;48.526;8.078;2023-01-15T13:55:31;99038.59;;;6.96;66.06
77192;BME280;66172;48.526;8.078;2023-01-15T13:57:58;99051.47;;;6.99;65.32
77192;BME280;66172;48.526;8.078;2023-01-15T14:00:35;99053.81;;;7.01;65.27
77192;BME280;66172;48.526;8.078;2023-01-15T14:03:22;99058.25;;;7.14;65.10
77192;BME280;66172;48.526;8.078;2023-01-15T14:05:57;99052.91;;;7.26;65.44
77192;BME280;66172;48.526;8.078;2023-01-15T14:08:34;99056.22;;;7.61;64.44
77192;BME280;66172;48.526;8.078;2023-01-15T14:11:01;99054.59;;;7.39;65.89
77192;BME280;66172;48.526;8.078;2023-01-15T14:16:49;99050.16;;;7.64;63.94
77192;BME280;66172;48.526;8.078;2023-01-15T14:22:15;99036.88;;;7.50;63.68
77192;BME280;66172;48.526;8.078;2023-01-15T14:25:12;99049.16;;;7.48;65.38
77192;BME280;66172;48.526;8.078;2023-01-15T14:27:52;99054.97;;;7.00;66.67
77192;BME280;66172;48.526;8.078;2023-01-15T14:30:51;99060.53;;;6.95;66.89
77192;BME280;66172;48.526;8.078;2023-01-15T14:33:33;99058.28;;;6.97;66.46